Padus, Wisconsin
Current Conditions -  °F | °C
As of 3:15 PM on Wednesday 26 Nov 2014 (Local Time) from KAIG Reporting Station
Light Snow Light Snow  
Wind Chill: 21°   Ceiling: 3700
Heat Index: 21°   Visibility: 4mi
Dew Point: 19°   Wind: 0mph
Humidity: 90%   Direction: NA
Pressure: 30.11"   Gusts: NA
Location:  45.4387°N, 88.6036°W
Report Text: KAIG 262115Z AUTO 00000KT 4SM -SN SCT031 OVC037 M06/M07 A3011 RMK AO2 T10611075
Loading
Personal Weather Stations






























Interactive Weather Map New forecast layout! Learn more

10-Day Weather Forecast

Advertisements
Track Severe Weather on mobile